createdAt,value
2022-08-03T00:00:39.595Z,26.77
2022-08-03T00:03:13.707Z,26.74
2022-08-03T00:16:26.593Z,26.66
2022-08-03T00:19:01.027Z,26.65
2022-08-03T00:21:35.607Z,26.67
2022-08-03T00:24:09.326Z,26.65
2022-08-03T00:26:42.654Z,26.65
2022-08-03T00:29:16.159Z,26.64
2022-08-03T00:42:09.645Z,26.56
2022-08-03T00:44:51.622Z,26.55
2022-08-03T00:47:25.201Z,26.54
2022-08-03T00:49:58.642Z,26.53
2022-08-03T00:52:32.268Z,26.51
2022-08-03T00:55:07.640Z,26.48
2022-08-03T00:57:44.359Z,26.49
2022-08-03T01:10:51.559Z,26.38
2022-08-03T01:14:01.365Z,26.35
2022-08-03T01:16:54.303Z,26.31
2022-08-03T01:19:55.602Z,26.27
2022-08-03T01:22:56.472Z,26.23
2022-08-03T01:36:02.563Z,26.16
2022-08-03T01:38:50.620Z,26.13
2022-08-03T01:41:33.361Z,26.10
2022-08-03T01:44:30.116Z,26.09
2022-08-03T01:47:06.454Z,26.08
2022-08-03T02:02:45.695Z,25.96
2022-08-03T02:05:21.070Z,25.92
2022-08-03T02:07:57.580Z,25.91
2022-08-03T02:10:36.092Z,25.86
2022-08-03T02:13:17.591Z,25.83
2022-08-03T02:15:53.335Z,25.80
2022-08-03T02:18:33.931Z,25.79
2022-08-03T02:28:39.601Z,25.71
2022-08-03T02:31:25.629Z,25.68
2022-08-03T02:34:08.465Z,25.65
2022-08-03T02:36:53.664Z,25.62
2022-08-03T02:39:32.855Z,25.56
2022-08-03T02:42:17.849Z,25.54
2022-08-03T02:55:34.675Z,25.50
2022-08-03T02:58:19.016Z,25.48
2022-08-03T03:01:01.707Z,25.45
2022-08-03T03:03:39.984Z,25.44
2022-08-03T03:06:26.595Z,25.43
2022-08-03T03:09:05.057Z,25.38
2022-08-03T03:22:06.557Z,25.30
2022-08-03T03:24:49.637Z,25.29
2022-08-03T03:27:23.917Z,25.27
2022-08-03T03:29:58.640Z,25.26
2022-08-03T03:32:32.705Z,25.26
2022-08-03T03:35:07.616Z,25.23
2022-08-03T03:37:59.793Z,25.19
2022-08-03T03:50:56.593Z,25.14
2022-08-03T03:53:38.636Z,25.11
2022-08-03T03:56:12.514Z,25.09
2022-08-03T03:58:46.595Z,25.07
2022-08-03T04:01:20.361Z,25.06
2022-08-03T04:03:54.594Z,25.02
2022-08-03T04:17:09.595Z,24.89
2022-08-03T04:19:49.253Z,24.87
2022-08-03T04:22:37.014Z,24.84
2022-08-03T04:25:17.833Z,24.86
2022-08-03T04:28:08.045Z,24.85
2022-08-03T04:42:16.593Z,24.79
2022-08-03T04:44:55.581Z,24.81
2022-08-03T04:47:40.632Z,24.79
2022-08-03T04:50:20.873Z,24.79
2022-08-03T04:53:12.593Z,24.81
2022-08-03T04:55:47.374Z,24.81
2022-08-03T04:58:22.613Z,24.82
2022-08-03T05:11:32.653Z,24.87
2022-08-03T05:14:08.055Z,24.92
2022-08-03T05:16:41.614Z,24.93
2022-08-03T05:19:18.234Z,24.99
2022-08-03T05:21:58.602Z,25.02
2022-08-03T05:24:32.116Z,25.09
2022-08-03T05:37:23.594Z,25.42
2022-08-03T05:40:03.613Z,25.49
2022-08-03T05:42:37.873Z,25.57
2022-08-03T05:45:12.616Z,25.63
2022-08-03T05:47:47.493Z,25.72
2022-08-03T06:06:34.075Z,26.26
2022-08-03T06:09:01.315Z,26.35
2022-08-03T06:11:41.654Z,26.42
2022-08-03T06:14:16.173Z,26.51
2022-08-03T06:16:49.594Z,26.61
2022-08-03T06:19:25.074Z,26.72
2022-08-03T06:29:21.234Z,27.05
2022-08-03T06:31:55.114Z,27.16
2022-08-03T06:34:35.633Z,27.26
2022-08-03T06:37:10.075Z,27.36
2022-08-03T06:39:43.595Z,27.42
2022-08-03T06:42:21.235Z,27.50
2022-08-03T06:55:56.574Z,28.00
2022-08-03T06:58:38.623Z,28.13
2022-08-03T07:01:12.096Z,28.22
2022-08-03T07:03:52.046Z,28.31
2022-08-03T07:06:26.376Z,28.41
2022-08-03T07:08:59.789Z,28.50
2022-08-03T07:22:47.676Z,28.84
2022-08-03T07:25:21.615Z,28.93
2022-08-03T07:27:55.594Z,28.98
2022-08-03T07:30:30.355Z,29.03
2022-08-03T07:33:05.236Z,29.06
2022-08-03T07:35:39.302Z,29.11
2022-08-03T07:38:14.643Z,29.13
2022-08-03T07:51:24.635Z,29.09
2022-08-03T07:54:00.116Z,29.07
2022-08-03T07:56:34.675Z,29.04
2022-08-03T07:59:08.315Z,28.98
2022-08-03T08:01:41.701Z,28.94
2022-08-03T08:04:15.155Z,28.91
2022-08-03T08:17:07.455Z,28.81
2022-08-03T08:19:51.530Z,28.78
2022-08-03T08:22:30.533Z,28.77
2022-08-03T08:25:12.614Z,28.78
2022-08-03T08:28:30.665Z,28.78
2022-08-03T08:44:30.625Z,28.87
2022-08-03T08:47:04.374Z,28.94
2022-08-03T08:49:53.603Z,29.01
2022-08-03T08:52:40.134Z,29.15
2022-08-03T08:55:26.699Z,29.28
2022-08-03T08:58:05.793Z,29.43
2022-08-03T09:11:03.575Z,29.96
2022-08-03T09:13:43.655Z,30.03
2022-08-03T09:16:21.175Z,30.14
2022-08-03T09:19:01.633Z,30.18
2022-08-03T09:21:35.198Z,30.24
2022-08-03T09:24:25.734Z,30.32
2022-08-03T09:38:13.875Z,30.63
2022-08-03T09:40:38.595Z,30.70
2022-08-03T09:43:15.015Z,30.77
2022-08-03T09:45:49.974Z,30.82
2022-08-03T09:48:35.647Z,30.89
2022-08-03T10:05:17.661Z,31.24
2022-08-03T10:08:00.615Z,31.30
2022-08-03T10:10:43.533Z,31.35
2022-08-03T10:13:25.656Z,31.44
2022-08-03T10:16:21.153Z,31.55
2022-08-03T10:18:59.615Z,31.66
2022-08-03T10:31:55.876Z,31.98
2022-08-03T10:34:40.310Z,32.06
2022-08-03T10:37:27.656Z,32.12
2022-08-03T10:40:02.394Z,32.15
2022-08-03T10:42:37.614Z,32.16
2022-08-03T10:59:22.937Z,32.59
2022-08-03T11:02:08.695Z,32.68
2022-08-03T11:04:43.776Z,32.75
2022-08-03T11:07:28.634Z,32.81
2022-08-03T11:10:03.977Z,32.89
2022-08-03T11:12:45.642Z,32.99
2022-08-03T11:26:19.654Z,33.33
2022-08-03T11:28:53.134Z,33.42
2022-08-03T11:31:52.017Z,33.48
2022-08-03T11:34:26.540Z,33.55
2022-08-03T11:37:32.962Z,33.59
2022-08-03T11:50:47.258Z,33.58
2022-08-03T11:53:21.514Z,33.66
2022-08-03T11:55:55.636Z,33.73
2022-08-03T11:59:16.631Z,33.76
2022-08-03T12:01:31.694Z,33.79
2022-08-03T12:04:08.176Z,33.85
2022-08-03T12:17:03.623Z,34.23
2022-08-03T12:19:48.654Z,34.29
2022-08-03T12:22:32.355Z,34.33
2022-08-03T12:25:16.682Z,34.40
2022-08-03T12:28:28.243Z,34.46
2022-08-03T12:31:15.634Z,34.52
2022-08-03T12:33:59.993Z,34.55
2022-08-03T12:43:54.634Z,34.67
2022-08-03T12:46:34.295Z,34.74
2022-08-03T12:49:20.780Z,34.79
2022-08-03T12:52:03.911Z,34.72
2022-08-03T12:54:49.114Z,34.76
2022-08-03T12:57:23.737Z,34.81
2022-08-03T13:10:36.595Z,35.08
2022-08-03T13:13:16.759Z,35.12
2022-08-03T13:15:50.182Z,35.16
2022-08-03T13:18:23.676Z,35.18
2022-08-03T13:20:57.220Z,35.24
2022-08-03T13:23:33.095Z,35.26
2022-08-03T13:37:20.825Z,35.34
2022-08-03T13:39:59.605Z,35.40
2022-08-03T13:42:43.700Z,35.44
2022-08-03T13:45:17.187Z,35.53
2022-08-03T13:47:50.681Z,35.57
2022-08-03T13:50:30.741Z,35.64
2022-08-03T13:53:12.702Z,35.73
2022-08-03T14:06:22.681Z,36.09
2022-08-03T14:09:00.646Z,36.08
2022-08-03T14:12:04.132Z,35.98
2022-08-03T14:14:35.961Z,35.93
2022-08-03T14:17:09.661Z,35.93
2022-08-03T14:19:53.218Z,35.96
2022-08-03T14:33:00.841Z,36.35
2022-08-03T14:35:41.668Z,36.42
2022-08-03T14:38:15.820Z,36.44
2022-08-03T14:40:49.644Z,36.51
2022-08-03T14:43:23.603Z,36.54
2022-08-03T14:59:55.809Z,36.71
2022-08-03T15:02:31.358Z,36.76
2022-08-03T15:05:07.324Z,36.80
2022-08-03T15:07:41.481Z,36.83
2022-08-03T15:10:15.682Z,36.81
2022-08-03T15:12:49.202Z,36.86
2022-08-03T15:26:03.758Z,37.03
2022-08-03T15:28:40.702Z,37.07
2022-08-03T15:31:14.141Z,37.05
2022-08-03T15:33:59.702Z,37.03
2022-08-03T15:36:33.301Z,36.99
2022-08-03T15:39:06.769Z,37.00
2022-08-03T15:52:18.682Z,36.98
2022-08-03T15:54:52.341Z,36.99
2022-08-03T15:57:26.662Z,36.99
2022-08-03T16:00:00.469Z,37.03
2022-08-03T16:02:34.702Z,37.00
2022-08-03T16:19:11.642Z,37.09
2022-08-03T16:21:51.721Z,37.07
2022-08-03T16:24:27.951Z,37.06
2022-08-03T16:27:36.853Z,37.04
2022-08-03T16:30:02.643Z,37.07
2022-08-03T16:32:36.721Z,37.07
2022-08-03T16:35:19.776Z,37.08
2022-08-03T16:44:58.681Z,37.14
2022-08-03T16:47:32.602Z,37.14
2022-08-03T16:50:13.998Z,37.16
2022-08-03T16:52:53.281Z,37.20
2022-08-03T16:55:49.065Z,37.24
2022-08-03T16:58:41.800Z,37.29
2022-08-03T17:11:46.655Z,37.68
2022-08-03T17:14:31.362Z,37.55
2022-08-03T17:17:16.234Z,37.59
2022-08-03T17:19:58.701Z,37.49
2022-08-03T17:22:38.562Z,37.63
2022-08-03T17:39:00.699Z,38.93
2022-08-03T17:41:37.202Z,38.94
2022-08-03T17:44:38.713Z,38.99
2022-08-03T17:47:21.493Z,39.00
2022-08-03T17:49:55.681Z,38.91
2022-08-03T17:52:48.309Z,38.67
2022-08-03T18:06:11.860Z,36.55
2022-08-03T18:09:05.243Z,36.20
2022-08-03T18:11:59.930Z,35.89
2022-08-03T18:14:57.844Z,35.66
2022-08-03T18:17:55.377Z,35.44
2022-08-03T18:32:02.452Z,34.79
2022-08-03T18:34:34.375Z,34.68
2022-08-03T18:37:08.361Z,34.53
2022-08-03T18:39:50.250Z,34.45
2022-08-03T18:42:26.881Z,34.38
2022-08-03T18:45:14.630Z,34.31
2022-08-03T18:58:54.701Z,34.00
2022-08-03T19:02:00.519Z,33.95
2022-08-03T19:04:41.765Z,33.88
2022-08-03T19:07:26.104Z,33.83
2022-08-03T19:10:15.878Z,33.77
2022-08-03T19:12:57.751Z,33.71
2022-08-03T19:25:54.661Z,33.47
2022-08-03T19:28:36.701Z,33.43
2022-08-03T19:31:19.581Z,33.37
2022-08-03T19:34:02.701Z,33.32
2022-08-03T19:36:40.424Z,33.30
2022-08-03T19:39:23.763Z,33.23
2022-08-03T19:52:42.682Z,33.01
2022-08-03T19:55:18.584Z,32.95
2022-08-03T19:58:00.722Z,32.92
2022-08-03T20:00:40.621Z,32.86
2022-08-03T20:03:42.956Z,32.80
2022-08-03T20:20:25.701Z,32.55
2022-08-03T20:23:10.762Z,32.54
2022-08-03T20:25:58.504Z,32.48
2022-08-03T20:28:50.031Z,32.44
2022-08-03T20:31:32.230Z,32.42
2022-08-03T20:34:17.613Z,32.37
2022-08-03T20:47:30.722Z,32.15
2022-08-03T20:50:07.750Z,32.13
2022-08-03T20:52:49.683Z,32.10
2022-08-03T20:55:47.963Z,32.07
2022-08-03T20:58:26.703Z,32.04
2022-08-03T21:14:33.787Z,31.81
2022-08-03T21:17:31.338Z,31.77
2022-08-03T21:20:12.592Z,31.74
2022-08-03T21:23:02.186Z,31.71
2022-08-03T21:25:37.865Z,31.68
2022-08-03T21:28:13.909Z,31.66
2022-08-03T21:38:52.786Z,31.53
2022-08-03T21:41:39.846Z,31.49
2022-08-03T21:44:16.266Z,31.46
2022-08-03T21:47:01.913Z,31.44
2022-08-03T21:50:07.622Z,31.41
2022-08-03T21:52:39.865Z,31.38
2022-08-03T22:05:51.866Z,31.26
2022-08-03T22:08:36.367Z,31.23
2022-08-03T22:11:10.834Z,31.19
2022-08-03T22:13:44.866Z,31.13
2022-08-03T22:16:19.724Z,31.13
2022-08-03T22:18:53.287Z,31.09
2022-08-03T22:32:22.691Z,30.92
2022-08-03T22:35:04.727Z,30.87
2022-08-03T22:37:40.568Z,30.80
2022-08-03T22:40:23.747Z,30.78
2022-08-03T22:42:57.688Z,30.77
2022-08-03T22:46:07.013Z,30.74
2022-08-03T22:48:31.986Z,30.71
2022-08-03T23:01:31.715Z,30.62
2022-08-03T23:04:14.732Z,30.59
2022-08-03T23:06:56.646Z,30.56
2022-08-03T23:09:37.748Z,30.55
2022-08-03T23:12:17.746Z,30.53
2022-08-03T23:15:01.783Z,30.53
2022-08-03T23:28:15.745Z,30.43
2022-08-03T23:30:50.386Z,30.42
2022-08-03T23:33:27.085Z,30.41
2022-08-03T23:36:28.144Z,30.39
2022-08-03T23:39:02.828Z,30.38
2022-08-03T23:52:40.787Z,30.25
2022-08-03T23:55:24.251Z,30.24
2022-08-03T23:58:15.771Z,30.20
